createdAt,value
2023-05-21T00:01:24.133Z,16.10
2023-05-21T00:11:29.557Z,15.69
2023-05-21T00:21:41.320Z,15.49
2023-05-21T00:31:46.624Z,15.27
2023-05-21T00:41:50.590Z,15.08
2023-05-21T00:51:55.823Z,15.03
2023-05-21T01:02:05.698Z,15.05
2023-05-21T01:12:14.186Z,15.03
2023-05-21T01:22:25.260Z,14.89
2023-05-21T01:32:48.040Z,14.79
2023-05-21T01:42:53.864Z,14.61
2023-05-21T01:52:58.735Z,14.34
2023-05-21T02:03:05.225Z,14.24
2023-05-21T02:13:09.012Z,14.27
2023-05-21T02:23:12.694Z,14.22
2023-05-21T02:33:17.031Z,14.23
2023-05-21T02:43:23.185Z,14.05
2023-05-21T02:53:30.085Z,14.14
2023-05-21T03:03:34.170Z,14.70
2023-05-21T03:13:42.907Z,15.03
2023-05-21T03:23:51.757Z,15.37
2023-05-21T03:33:55.603Z,15.71
2023-05-21T03:44:05.706Z,16.13
2023-05-21T03:54:20.253Z,17.18
2023-05-21T04:04:24.644Z,21.79
2023-05-21T04:14:28.308Z,29.84
2023-05-21T04:24:32.055Z,35.35
2023-05-21T04:34:49.253Z,38.87
2023-05-21T04:44:57.577Z,41.31
2023-05-21T04:55:03.981Z,43.16
2023-05-21T05:05:08.010Z,45.10
2023-05-21T05:15:11.886Z,46.18
2023-05-21T05:25:15.766Z,46.12
2023-05-21T05:35:19.867Z,41.46
2023-05-21T05:45:23.602Z,36.18
2023-05-21T05:55:27.659Z,32.66
2023-05-21T06:05:31.802Z,29.93
2023-05-21T06:15:35.778Z,28.28
2023-05-21T06:25:41.030Z,27.11
2023-05-21T06:35:45.089Z,26.05
2023-05-21T06:45:49.090Z,25.61
2023-05-21T06:56:07.360Z,25.22
2023-05-21T07:06:19.596Z,25.15
2023-05-21T07:16:24.299Z,25.26
2023-05-21T07:26:28.062Z,25.24
2023-05-21T07:36:35.157Z,25.11
2023-05-21T07:46:39.151Z,25.22
2023-05-21T07:56:43.004Z,25.22
2023-05-21T08:06:54.041Z,25.19
2023-05-21T08:16:57.871Z,25.34
2023-05-21T08:27:01.683Z,25.41
2023-05-21T08:37:07.248Z,25.44
2023-05-21T08:47:37.312Z,25.44
2023-05-21T08:57:44.730Z,25.43
2023-05-21T09:08:35.533Z,25.35
2023-05-21T09:18:58.310Z,25.37
2023-05-21T09:29:09.865Z,25.48
2023-05-21T09:39:33.635Z,25.24
2023-05-21T09:49:39.864Z,24.97
2023-05-21T09:59:43.514Z,25.03
2023-05-21T10:09:51.272Z,25.09
2023-05-21T10:19:57.001Z,25.39
2023-05-21T10:30:01.040Z,25.49
2023-05-21T10:40:07.687Z,25.52
2023-05-21T10:50:57.222Z,24.97
2023-05-21T11:01:03.077Z,25.06
2023-05-21T11:11:11.415Z,25.10
2023-05-21T11:21:26.436Z,25.61
2023-05-21T11:31:39.045Z,25.28
2023-05-21T11:42:02.464Z,24.97
2023-05-21T11:52:10.204Z,25.41
2023-05-21T12:02:17.680Z,25.76
2023-05-21T12:12:29.365Z,26.14
2023-05-21T12:22:44.994Z,25.63
2023-05-21T12:32:49.437Z,25.61
2023-05-21T12:42:55.219Z,25.81
2023-05-21T12:52:58.867Z,25.84
2023-05-21T13:03:04.841Z,26.19
2023-05-21T13:13:10.466Z,26.41
2023-05-21T13:23:20.672Z,26.46
2023-05-21T13:33:24.718Z,26.45
2023-05-21T13:43:28.691Z,26.47
2023-05-21T13:53:32.496Z,26.34
2023-05-21T14:03:36.268Z,26.29
2023-05-21T14:13:40.012Z,26.28
2023-05-21T14:23:45.593Z,26.47
2023-05-21T14:33:54.758Z,26.82
2023-05-21T14:43:58.384Z,26.70
2023-05-21T14:54:02.187Z,26.24
2023-05-21T15:04:08.171Z,26.71
2023-05-21T15:14:12.859Z,26.58
2023-05-21T15:24:16.533Z,26.13
2023-05-21T15:34:22.772Z,26.02
2023-05-21T15:44:26.580Z,25.39
2023-05-21T15:54:31.078Z,25.46
2023-05-21T16:04:34.848Z,25.35
2023-05-21T16:14:38.460Z,25.28
2023-05-21T16:24:42.096Z,24.95
2023-05-21T16:34:47.589Z,24.92
2023-05-21T16:44:51.321Z,25.09
2023-05-21T16:54:54.996Z,25.23
2023-05-21T17:05:00.697Z,24.94
2023-05-21T17:15:04.921Z,24.62
2023-05-21T17:25:09.679Z,24.51
2023-05-21T17:35:13.388Z,24.27
2023-05-21T17:45:20.387Z,23.73
2023-05-21T17:55:24.133Z,23.32
2023-05-21T18:05:28.175Z,22.99
2023-05-21T18:15:36.084Z,22.67
2023-05-21T18:25:40.317Z,22.20
2023-05-21T18:35:44.744Z,21.77
2023-05-21T18:45:50.119Z,21.11
2023-05-21T18:55:53.700Z,20.38
2023-05-21T19:05:57.345Z,20.00
2023-05-21T19:16:02.487Z,19.80
2023-05-21T19:26:10.198Z,19.60
2023-05-21T19:36:14.411Z,19.27
2023-05-21T19:46:20.286Z,18.97
2023-05-21T19:56:24.695Z,18.67
2023-05-21T20:06:30.246Z,18.34
2023-05-21T20:16:35.607Z,18.06
2023-05-21T20:26:40.001Z,17.86
2023-05-21T20:36:43.865Z,17.71
2023-05-21T20:46:51.851Z,17.56
2023-05-21T20:57:00.653Z,17.41
2023-05-21T21:07:09.831Z,17.24
2023-05-21T21:17:15.345Z,17.14
2023-05-21T21:27:20.766Z,17.17
2023-05-21T21:37:26.093Z,17.15
2023-05-21T21:47:31.133Z,17.03
2023-05-21T21:57:34.868Z,16.85
2023-05-21T22:07:42.201Z,16.59
2023-05-21T22:17:48.508Z,16.27
2023-05-21T22:27:54.220Z,15.87
2023-05-21T22:37:58.922Z,15.74
2023-05-21T22:48:07.734Z,15.58
2023-05-21T22:58:12.016Z,15.31
2023-05-21T23:08:19.319Z,15.13
2023-05-21T23:18:24.055Z,14.97
2023-05-21T23:28:30.505Z,14.76
2023-05-21T23:38:34.322Z,14.56
2023-05-21T23:48:37.935Z,14.37
2023-05-21T23:58:43.173Z,14.31
